createdAt,value
2018-09-25T00:01:35.776Z,7.90
2018-09-25T00:04:09.230Z,9.10
2018-09-25T00:06:42.725Z,10.00
2018-09-25T00:09:16.252Z,10.40
2018-09-25T00:11:49.616Z,10.50
2018-09-25T00:14:22.919Z,10.40
2018-09-25T00:16:56.469Z,10.50
2018-09-25T00:19:29.964Z,10.10
2018-09-25T00:22:03.485Z,10.50
2018-09-25T00:24:36.920Z,10.60
2018-09-25T00:27:10.411Z,10.20
2018-09-25T00:29:43.836Z,10.20
2018-09-25T00:32:17.342Z,10.20
2018-09-25T00:34:51.033Z,10.30
2018-09-25T00:37:24.409Z,10.30
2018-09-25T00:39:57.764Z,10.30
2018-09-25T00:42:31.344Z,10.20
2018-09-25T00:45:04.892Z,10.00
2018-09-25T00:47:38.275Z,8.90
2018-09-25T00:50:11.849Z,8.50
2018-09-25T00:52:45.317Z,8.20
2018-09-25T00:55:18.938Z,8.10
2018-09-25T00:57:52.429Z,8.00
2018-09-25T01:00:26.258Z,7.90
2018-09-25T01:02:59.603Z,7.70
2018-09-25T01:05:33.024Z,7.60
2018-09-25T01:08:06.445Z,7.60
2018-09-25T01:10:40.053Z,7.50
2018-09-25T01:13:13.536Z,7.40
2018-09-25T01:15:46.977Z,7.40
2018-09-25T01:18:20.493Z,8.10
2018-09-25T01:20:54.112Z,8.70
2018-09-25T01:23:27.460Z,9.40
2018-09-25T01:26:00.755Z,10.10
2018-09-25T01:28:34.050Z,10.50
2018-09-25T01:31:08.090Z,10.80
2018-09-25T01:33:41.636Z,11.00
2018-09-25T01:36:14.985Z,10.90
2018-09-25T01:38:48.320Z,11.30
2018-09-25T01:41:21.666Z,11.40
2018-09-25T01:43:55.261Z,11.20
2018-09-25T01:46:28.612Z,10.80
2018-09-25T01:49:02.021Z,9.80
2018-09-25T01:51:35.470Z,8.90
2018-09-25T01:54:09.024Z,8.50
2018-09-25T01:56:42.321Z,8.10
2018-09-25T01:59:15.760Z,7.90
2018-09-25T02:01:49.202Z,7.70
2018-09-25T02:04:22.766Z,7.60
2018-09-25T02:06:56.150Z,7.40
2018-09-25T02:09:29.506Z,7.40
2018-09-25T02:12:02.892Z,7.30
2018-09-25T02:14:36.445Z,7.30
2018-09-25T02:17:09.788Z,7.20
2018-09-25T02:19:43.212Z,7.10
2018-09-25T02:22:16.742Z,7.10
2018-09-25T02:24:50.252Z,7.10
2018-09-25T02:27:23.680Z,7.10
2018-09-25T02:29:57.872Z,7.10
2018-09-25T02:32:31.376Z,7.00
2018-09-25T02:35:04.950Z,7.00
2018-09-25T02:37:38.540Z,7.00
2018-09-25T02:40:12.054Z,7.00
2018-09-25T02:42:45.688Z,6.90
2018-09-25T02:45:19.178Z,6.90
2018-09-25T02:47:52.684Z,6.90
2018-09-25T02:50:26.265Z,6.80
2018-09-25T02:52:59.445Z,6.80
2018-09-25T02:55:33.070Z,6.80
2018-09-25T02:58:06.652Z,6.90
2018-09-25T03:00:40.077Z,6.90
2018-09-25T03:03:13.641Z,6.80
2018-09-25T03:05:47.105Z,6.80
2018-09-25T03:08:20.623Z,6.80
2018-09-25T03:10:54.166Z,6.80
2018-09-25T03:13:27.628Z,6.80
2018-09-25T03:16:01.108Z,6.80
2018-09-25T03:18:34.550Z,6.80
2018-09-25T03:21:08.150Z,6.80
2018-09-25T03:23:41.782Z,6.80
2018-09-25T03:26:15.029Z,6.90
2018-09-25T03:28:48.573Z,6.90
2018-09-25T03:31:22.193Z,6.90
2018-09-25T03:33:55.577Z,6.90
2018-09-25T03:36:29.238Z,6.90
2018-09-25T03:39:02.784Z,6.90
2018-09-25T03:41:36.109Z,6.90
2018-09-25T03:44:09.532Z,6.90
2018-09-25T03:46:43.040Z,6.90
2018-09-25T03:49:16.449Z,6.90
2018-09-25T03:51:49.966Z,6.90
2018-09-25T03:54:23.345Z,6.90
2018-09-25T03:56:56.913Z,6.90
2018-09-25T03:59:30.516Z,6.90
2018-09-25T04:02:03.919Z,6.80
2018-09-25T04:04:37.389Z,6.80
2018-09-25T04:07:10.814Z,6.90
2018-09-25T04:09:44.359Z,6.80
2018-09-25T04:12:17.889Z,6.80
2018-09-25T04:14:51.388Z,6.90
2018-09-25T04:17:24.958Z,6.80
2018-09-25T04:19:58.432Z,6.80
2018-09-25T04:22:31.889Z,6.80
2018-09-25T04:25:05.485Z,6.80
2018-09-25T04:27:38.941Z,6.80
2018-09-25T04:30:12.444Z,6.80
2018-09-25T04:32:45.779Z,6.80
2018-09-25T04:35:19.380Z,6.80
2018-09-25T04:37:52.864Z,6.80
2018-09-25T04:40:26.175Z,6.90
2018-09-25T04:43:00.502Z,6.90
2018-09-25T04:45:34.114Z,6.90
2018-09-25T04:48:07.371Z,6.90
2018-09-25T04:50:40.973Z,6.90
2018-09-25T04:53:14.592Z,7.00
2018-09-25T04:55:48.058Z,7.10
2018-09-25T04:58:21.593Z,7.10
2018-09-25T05:00:55.138Z,7.10
2018-09-25T05:03:28.568Z,7.10
2018-09-25T05:06:02.129Z,7.20
2018-09-25T05:08:35.669Z,7.20
2018-09-25T05:11:08.999Z,7.30
2018-09-25T05:13:42.427Z,7.30
2018-09-25T05:16:15.977Z,7.30
2018-09-25T05:18:49.620Z,7.40
2018-09-25T05:21:23.164Z,7.40
2018-09-25T05:23:56.689Z,7.40
2018-09-25T05:26:30.936Z,7.40
2018-09-25T05:29:04.321Z,7.40
2018-09-25T05:31:37.797Z,7.50
2018-09-25T05:34:11.380Z,7.50
2018-09-25T05:36:44.872Z,7.50
2018-09-25T05:39:18.452Z,7.50
2018-09-25T05:41:51.865Z,7.60
2018-09-25T05:44:25.305Z,7.60
2018-09-25T05:46:58.716Z,7.60
2018-09-25T05:49:32.217Z,7.70
2018-09-25T05:52:05.792Z,7.70
2018-09-25T05:54:39.240Z,7.80
2018-09-25T05:57:12.758Z,7.70
2018-09-25T05:59:46.240Z,7.80
2018-09-25T06:02:19.653Z,7.80
2018-09-25T06:04:53.054Z,7.80
2018-09-25T06:07:26.581Z,7.80
2018-09-25T06:10:00.028Z,7.80
2018-09-25T06:12:33.521Z,7.90
2018-09-25T06:15:06.929Z,7.90
2018-09-25T06:17:40.393Z,8.00
2018-09-25T06:20:13.846Z,8.00
2018-09-25T06:22:47.377Z,8.00
2018-09-25T06:25:20.779Z,8.10
2018-09-25T06:27:54.218Z,8.10
2018-09-25T06:30:27.577Z,8.20
2018-09-25T06:33:01.176Z,8.30
2018-09-25T06:35:34.728Z,8.30
2018-09-25T06:38:08.158Z,8.30
2018-09-25T06:40:41.637Z,8.30
2018-09-25T06:43:15.216Z,8.30
2018-09-25T06:45:48.765Z,8.30
2018-09-25T06:48:22.264Z,8.30
2018-09-25T06:50:55.725Z,8.30
2018-09-25T06:53:29.305Z,8.30
2018-09-25T06:56:02.912Z,8.30
2018-09-25T06:58:36.245Z,8.40
2018-09-25T07:01:09.789Z,8.40
2018-09-25T07:03:43.285Z,8.50
2018-09-25T07:06:16.645Z,8.50
2018-09-25T07:08:50.180Z,8.60
2018-09-25T07:11:23.680Z,8.70
2018-09-25T07:13:57.075Z,8.80
2018-09-25T07:16:30.696Z,9.00
2018-09-25T07:19:04.113Z,9.00
2018-09-25T07:21:37.572Z,9.10
2018-09-25T07:24:11.149Z,9.20
2018-09-25T07:26:44.610Z,9.20
2018-09-25T07:29:18.075Z,9.20
2018-09-25T07:31:51.441Z,9.20
2018-09-25T07:34:24.984Z,9.30
2018-09-25T07:36:58.608Z,9.30
2018-09-25T07:39:31.998Z,9.40
2018-09-25T07:42:05.320Z,9.40
2018-09-25T07:44:38.949Z,9.40
2018-09-25T07:47:12.583Z,9.50
2018-09-25T07:49:46.042Z,9.60
2018-09-25T07:52:19.660Z,9.60
2018-09-25T07:54:53.068Z,9.70
2018-09-25T07:57:26.565Z,9.70
2018-09-25T08:00:00.161Z,9.80
2018-09-25T08:02:34.180Z,9.90
2018-09-25T08:05:07.557Z,10.00
2018-09-25T08:07:40.972Z,10.00
2018-09-25T08:10:14.364Z,10.10
2018-09-25T08:12:47.899Z,10.20
2018-09-25T08:15:21.395Z,10.30
2018-09-25T08:17:54.630Z,10.40
2018-09-25T08:20:28.027Z,10.60
2018-09-25T08:23:01.554Z,10.80
2018-09-25T08:25:34.896Z,10.90
2018-09-25T08:28:08.197Z,11.10
2018-09-25T08:30:41.817Z,11.10
2018-09-25T08:33:15.440Z,11.30
2018-09-25T08:35:48.978Z,11.30
2018-09-25T08:38:22.529Z,11.50
2018-09-25T08:40:56.018Z,11.30
2018-09-25T08:43:29.516Z,11.20
2018-09-25T08:46:02.769Z,11.10
2018-09-25T08:48:36.352Z,11.10
2018-09-25T08:51:09.905Z,11.00
2018-09-25T08:53:43.506Z,10.90
2018-09-25T08:56:16.904Z,10.90
2018-09-25T08:58:50.424Z,10.90
2018-09-25T09:01:24.013Z,11.10
2018-09-25T09:03:57.474Z,11.10
2018-09-25T09:06:30.875Z,11.20
2018-09-25T09:09:05.248Z,11.30
2018-09-25T09:11:38.850Z,11.40
2018-09-25T09:14:12.413Z,11.40
2018-09-25T09:16:45.848Z,11.40
2018-09-25T09:19:19.143Z,11.50
2018-09-25T09:21:52.704Z,11.60
2018-09-25T09:24:26.185Z,11.70
2018-09-25T09:26:59.810Z,11.90
2018-09-25T09:29:33.105Z,11.80
2018-09-25T09:32:06.597Z,11.80
2018-09-25T09:34:40.096Z,11.90
2018-09-25T09:37:13.698Z,12.10
2018-09-25T09:39:47.137Z,11.90
2018-09-25T09:42:20.822Z,11.80
2018-09-25T09:44:54.409Z,11.90
2018-09-25T09:47:28.012Z,12.50
2018-09-25T09:50:01.573Z,13.00
2018-09-25T09:52:36.135Z,13.40
2018-09-25T09:55:09.624Z,13.50
2018-09-25T09:57:43.176Z,13.70
2018-09-25T10:00:16.582Z,13.60
2018-09-25T10:02:50.019Z,13.40
2018-09-25T10:05:23.645Z,12.90
2018-09-25T10:07:57.224Z,12.60
2018-09-25T10:10:30.793Z,12.40
2018-09-25T10:13:04.389Z,12.50
2018-09-25T10:15:37.855Z,12.70
2018-09-25T10:18:11.534Z,12.90
2018-09-25T10:20:45.027Z,13.10
2018-09-25T10:23:18.480Z,13.40
2018-09-25T10:25:51.861Z,13.40
2018-09-25T10:28:25.373Z,13.30
2018-09-25T10:31:05.401Z,13.30
2018-09-25T10:33:38.865Z,13.20
2018-09-25T10:36:12.476Z,13.30
2018-09-25T10:38:46.077Z,13.80
2018-09-25T10:41:19.649Z,13.90
2018-09-25T10:43:53.127Z,14.40
2018-09-25T10:46:26.488Z,14.50
2018-09-25T10:49:00.052Z,14.00
2018-09-25T10:51:33.540Z,13.80
2018-09-25T10:54:07.141Z,13.60
2018-09-25T10:56:40.668Z,13.40
2018-09-25T10:59:14.309Z,13.50
2018-09-25T11:01:47.794Z,13.60
2018-09-25T11:04:21.390Z,13.70
2018-09-25T11:06:54.816Z,13.90
2018-09-25T11:09:28.449Z,14.00
2018-09-25T11:12:01.937Z,14.20
2018-09-25T11:14:35.254Z,14.30
2018-09-25T11:17:08.832Z,14.50
2018-09-25T11:19:42.445Z,15.30
2018-09-25T11:22:16.092Z,15.30
2018-09-25T11:24:49.592Z,16.00
2018-09-25T11:27:23.076Z,17.20
2018-09-25T11:29:56.636Z,18.60
2018-09-25T11:32:30.260Z,18.20
2018-09-25T11:35:03.754Z,18.30
2018-09-25T11:37:37.512Z,17.60
2018-09-25T11:40:10.980Z,16.70
2018-09-25T11:42:44.379Z,16.30
2018-09-25T11:45:17.729Z,16.20
2018-09-25T11:47:51.201Z,15.60
2018-09-25T11:50:24.802Z,15.40
2018-09-25T11:52:58.126Z,15.00
2018-09-25T11:55:31.717Z,14.90
2018-09-25T11:58:05.215Z,14.90
2018-09-25T12:00:38.744Z,16.00
2018-09-25T12:03:12.240Z,16.50
2018-09-25T12:05:45.925Z,16.10
2018-09-25T12:08:19.382Z,16.20
2018-09-25T12:10:52.776Z,16.00
2018-09-25T12:13:26.379Z,15.80
2018-09-25T12:15:59.934Z,15.80
2018-09-25T12:18:33.356Z,15.50
2018-09-25T12:21:06.763Z,15.20
2018-09-25T12:23:40.149Z,15.70
2018-09-25T12:26:20.766Z,16.30
2018-09-25T12:28:54.176Z,17.10
2018-09-25T12:31:27.774Z,19.30
2018-09-25T12:34:01.170Z,20.50
2018-09-25T12:36:34.621Z,21.80
2018-09-25T12:39:08.392Z,23.40
2018-09-25T12:41:41.623Z,25.10
2018-09-25T12:44:15.071Z,24.60
2018-09-25T12:46:48.524Z,25.50
2018-09-25T12:49:22.080Z,26.20
2018-09-25T12:51:55.664Z,25.80
2018-09-25T12:54:29.051Z,24.00
2018-09-25T12:57:02.661Z,24.50
2018-09-25T12:59:36.080Z,24.60
2018-09-25T13:02:09.547Z,23.10
2018-09-25T13:04:42.972Z,23.70
2018-09-25T13:07:16.390Z,25.60
2018-09-25T13:09:49.969Z,26.70
2018-09-25T13:12:23.400Z,27.80
2018-09-25T13:14:56.776Z,27.10
2018-09-25T13:17:30.330Z,26.70
2018-09-25T13:20:03.761Z,27.10
2018-09-25T13:22:37.192Z,27.50
2018-09-25T13:25:10.917Z,26.80
2018-09-25T13:27:44.501Z,26.30
2018-09-25T13:30:17.920Z,27.10
2018-09-25T13:32:51.401Z,25.90
2018-09-25T13:35:24.907Z,25.00
2018-09-25T13:37:58.492Z,24.90
2018-09-25T13:40:32.089Z,26.50
2018-09-25T13:43:05.710Z,28.40
2018-09-25T13:45:39.291Z,29.60
2018-09-25T13:48:12.824Z,29.90
2018-09-25T13:50:46.409Z,31.00
2018-09-25T13:53:19.936Z,31.70
2018-09-25T13:55:53.532Z,27.90
2018-09-25T13:58:26.918Z,28.30
2018-09-25T14:01:00.349Z,27.40
2018-09-25T14:03:34.038Z,28.40
2018-09-25T14:06:07.600Z,29.30
2018-09-25T14:08:41.205Z,28.80
2018-09-25T14:11:14.731Z,29.80
2018-09-25T14:13:48.309Z,29.90
2018-09-25T14:16:21.858Z,29.50
2018-09-25T14:18:55.485Z,28.90
2018-09-25T14:21:29.012Z,28.40
2018-09-25T14:24:02.422Z,29.20
2018-09-25T14:26:35.973Z,29.10
2018-09-25T14:29:10.017Z,27.40
2018-09-25T14:31:43.421Z,27.20
2018-09-25T14:34:16.847Z,26.50
2018-09-25T14:36:50.174Z,26.30
2018-09-25T14:39:23.717Z,25.80
2018-09-25T14:41:57.290Z,23.00
2018-09-25T14:44:30.811Z,25.20
2018-09-25T14:47:04.403Z,26.20
2018-09-25T14:49:37.766Z,26.20
2018-09-25T14:52:11.092Z,27.40
2018-09-25T14:54:44.553Z,26.70
2018-09-25T14:57:17.929Z,27.50
2018-09-25T14:59:51.400Z,27.50
2018-09-25T15:02:24.748Z,27.50
2018-09-25T15:04:58.246Z,27.70
2018-09-25T15:07:31.877Z,28.20
2018-09-25T15:10:05.276Z,27.30
2018-09-25T15:12:38.797Z,27.00
2018-09-25T15:15:12.190Z,27.50
2018-09-25T15:17:45.560Z,28.20
2018-09-25T15:20:18.864Z,27.90
2018-09-25T15:22:52.352Z,26.20
2018-09-25T15:25:25.850Z,24.10
2018-09-25T15:27:59.273Z,22.50
2018-09-25T15:30:32.650Z,22.20
2018-09-25T15:33:06.009Z,22.10
2018-09-25T15:35:39.605Z,22.90
2018-09-25T15:38:13.199Z,22.70
2018-09-25T15:40:46.759Z,23.80
2018-09-25T15:43:20.176Z,23.50
2018-09-25T15:45:53.501Z,23.00
2018-09-25T15:48:27.029Z,22.00
2018-09-25T15:51:00.564Z,21.70
2018-09-25T15:53:34.050Z,20.80
2018-09-25T15:56:07.483Z,20.10
2018-09-25T15:58:41.241Z,19.50
2018-09-25T16:01:14.728Z,18.80
2018-09-25T16:03:48.164Z,18.50
2018-09-25T16:06:21.520Z,18.50
2018-09-25T16:08:55.081Z,19.30
2018-09-25T16:11:28.749Z,19.40
2018-09-25T16:14:02.257Z,19.00
2018-09-25T16:16:35.640Z,18.30
2018-09-25T16:19:09.165Z,18.10
2018-09-25T16:21:42.737Z,17.60
2018-09-25T16:24:16.005Z,17.40
2018-09-25T16:26:49.505Z,17.20
2018-09-25T16:29:22.890Z,17.10
2018-09-25T16:31:56.421Z,16.90
2018-09-25T16:34:30.208Z,16.80
2018-09-25T16:37:03.722Z,16.70
2018-09-25T16:39:37.345Z,16.50
2018-09-25T16:42:11.641Z,16.30
2018-09-25T16:44:44.996Z,16.10
2018-09-25T16:47:18.611Z,15.90
2018-09-25T16:49:52.040Z,15.80
2018-09-25T16:52:25.600Z,15.70
2018-09-25T16:54:59.157Z,15.60
2018-09-25T16:57:32.458Z,15.60
2018-09-25T17:00:05.939Z,15.50
2018-09-25T17:02:39.469Z,15.40
2018-09-25T17:05:12.799Z,15.30
2018-09-25T17:07:46.332Z,15.30
2018-09-25T17:10:20.000Z,15.10
2018-09-25T17:12:53.482Z,15.00
2018-09-25T17:15:26.920Z,14.90
2018-09-25T17:18:00.521Z,14.90
2018-09-25T17:20:33.910Z,14.80
2018-09-25T17:23:07.465Z,14.80
2018-09-25T17:25:40.917Z,14.70
2018-09-25T17:28:14.444Z,14.60
2018-09-25T17:30:47.912Z,14.50
2018-09-25T17:33:21.429Z,14.40
2018-09-25T17:35:54.988Z,14.40
2018-09-25T17:38:28.609Z,14.30
2018-09-25T17:41:02.157Z,14.10
2018-09-25T17:43:35.584Z,14.10
2018-09-25T17:46:08.950Z,14.00
2018-09-25T17:48:43.378Z,13.90
2018-09-25T17:51:16.879Z,13.90
2018-09-25T17:53:50.468Z,13.80
2018-09-25T17:56:24.043Z,13.70
2018-09-25T17:58:57.478Z,13.70
2018-09-25T18:01:31.025Z,13.50
2018-09-25T18:04:04.618Z,13.40
2018-09-25T18:06:44.648Z,13.40
2018-09-25T18:09:18.110Z,13.40
2018-09-25T18:11:51.667Z,13.50
2018-09-25T18:14:25.276Z,13.40
2018-09-25T18:16:58.818Z,13.40
2018-09-25T18:19:32.301Z,13.40
2018-09-25T18:22:05.869Z,13.40
2018-09-25T18:24:39.261Z,13.30
2018-09-25T18:27:13.071Z,13.30
2018-09-25T18:29:46.555Z,13.30
2018-09-25T18:32:20.101Z,13.30
2018-09-25T18:34:53.465Z,13.20
2018-09-25T18:37:26.940Z,13.20
2018-09-25T18:40:00.359Z,13.20
2018-09-25T18:42:33.779Z,13.10
2018-09-25T18:45:07.407Z,13.00
2018-09-25T18:47:40.981Z,12.90
2018-09-25T18:50:14.574Z,12.90
2018-09-25T18:52:47.999Z,12.90
2018-09-25T18:55:21.420Z,12.80
2018-09-25T18:57:54.870Z,12.80
2018-09-25T19:00:28.379Z,12.70
2018-09-25T19:03:01.857Z,12.80
2018-09-25T19:05:35.388Z,12.70
2018-09-25T19:08:08.910Z,12.60
2018-09-25T19:10:42.479Z,12.60
2018-09-25T19:13:16.082Z,12.70
2018-09-25T19:15:49.453Z,12.50
2018-09-25T19:18:23.006Z,12.40
2018-09-25T19:20:56.432Z,12.40
2018-09-25T19:23:29.970Z,12.30
2018-09-25T19:26:03.561Z,12.30
2018-09-25T19:28:37.076Z,12.20
2018-09-25T19:31:10.666Z,12.30
2018-09-25T19:33:44.227Z,12.30
2018-09-25T19:36:17.657Z,12.20
2018-09-25T19:38:51.165Z,12.10
2018-09-25T19:41:24.602Z,12.10
2018-09-25T19:43:58.102Z,12.00
2018-09-25T19:46:31.769Z,12.00
2018-09-25T19:49:05.200Z,11.90
2018-09-25T19:51:38.721Z,12.00
2018-09-25T19:54:12.291Z,11.90
2018-09-25T19:56:45.861Z,11.90
2018-09-25T19:59:19.192Z,11.90
2018-09-25T20:01:52.800Z,11.80
2018-09-25T20:04:26.321Z,11.70
2018-09-25T20:06:59.912Z,11.70
2018-09-25T20:09:33.309Z,11.60
2018-09-25T20:12:06.924Z,11.60
2018-09-25T20:14:40.544Z,11.50
2018-09-25T20:17:14.761Z,11.40
2018-09-25T20:19:48.267Z,11.40
2018-09-25T20:22:21.756Z,11.30
2018-09-25T20:24:55.206Z,11.30
2018-09-25T20:27:28.871Z,11.30
2018-09-25T20:30:02.402Z,11.20
2018-09-25T20:32:35.792Z,11.20
2018-09-25T20:35:09.201Z,11.30
2018-09-25T20:37:42.705Z,11.40
2018-09-25T20:40:16.205Z,11.30
2018-09-25T20:42:49.708Z,11.30
2018-09-25T20:45:23.338Z,11.20
2018-09-25T20:47:56.742Z,11.00
2018-09-25T20:50:30.017Z,10.90
2018-09-25T20:53:03.593Z,10.80
2018-09-25T20:55:37.204Z,10.80
2018-09-25T20:58:10.568Z,10.80
2018-09-25T21:00:44.034Z,10.80
2018-09-25T21:03:17.445Z,10.70
2018-09-25T21:05:50.989Z,10.70
2018-09-25T21:08:24.362Z,10.60
2018-09-25T21:10:57.728Z,10.60
2018-09-25T21:13:30.992Z,10.50
2018-09-25T21:16:04.606Z,10.50
2018-09-25T21:18:38.009Z,10.50
2018-09-25T21:21:11.762Z,10.50
2018-09-25T21:23:45.819Z,10.40
2018-09-25T21:26:19.340Z,10.30
2018-09-25T21:28:52.784Z,10.30
2018-09-25T21:31:26.367Z,10.20
2018-09-25T21:33:59.905Z,10.20
2018-09-25T21:36:33.351Z,10.20
2018-09-25T21:39:06.862Z,10.30
2018-09-25T21:41:40.267Z,10.30
2018-09-25T21:44:14.077Z,10.30
2018-09-25T21:46:47.584Z,10.30
2018-09-25T21:49:21.003Z,10.30
2018-09-25T21:51:54.549Z,10.20
2018-09-25T21:54:27.916Z,10.30
2018-09-25T21:57:01.563Z,10.30
2018-09-25T21:59:34.939Z,10.30
2018-09-25T22:02:08.335Z,10.30
2018-09-25T22:04:41.831Z,10.40
2018-09-25T22:07:16.153Z,10.30
2018-09-25T22:09:49.671Z,10.20
2018-09-25T22:12:23.273Z,10.10
2018-09-25T22:14:56.749Z,10.20
2018-09-25T22:17:30.153Z,10.20
2018-09-25T22:20:03.720Z,10.20
2018-09-25T22:22:37.082Z,10.10
2018-09-25T22:25:10.519Z,10.10
2018-09-25T22:27:43.933Z,10.10
2018-09-25T22:30:17.532Z,10.10
2018-09-25T22:32:51.202Z,10.10
2018-09-25T22:35:24.668Z,10.10
2018-09-25T22:37:59.303Z,10.00
2018-09-25T22:40:32.757Z,9.90
2018-09-25T22:43:06.182Z,9.90
2018-09-25T22:45:39.753Z,9.90
2018-09-25T22:48:13.294Z,9.80
2018-09-25T22:50:47.090Z,9.80
2018-09-25T22:53:20.636Z,9.90
2018-09-25T22:55:54.152Z,9.80
2018-09-25T22:58:27.587Z,9.90
2018-09-25T23:01:01.149Z,9.80
2018-09-25T23:03:34.591Z,9.80
2018-09-25T23:06:08.010Z,9.80
2018-09-25T23:08:41.546Z,9.80
2018-09-25T23:11:14.993Z,9.70
2018-09-25T23:13:48.509Z,9.70
2018-09-25T23:16:22.085Z,9.70
2018-09-25T23:18:55.536Z,9.70
2018-09-25T23:21:29.011Z,9.60
2018-09-25T23:24:02.537Z,9.60
2018-09-25T23:26:36.065Z,9.60
2018-09-25T23:29:09.477Z,9.50
2018-09-25T23:31:42.972Z,9.50
2018-09-25T23:34:16.423Z,9.40
2018-09-25T23:36:49.872Z,9.40
2018-09-25T23:39:23.163Z,9.40
2018-09-25T23:41:56.560Z,9.40
2018-09-25T23:44:34.017Z,9.40
2018-09-25T23:47:06.392Z,9.40
2018-09-25T23:49:38.593Z,9.40
2018-09-25T23:52:41.496Z,9.70
2018-09-25T23:55:17.079Z,9.80
2018-09-25T23:57:50.132Z,9.70
